Time;durP1;ratioP1;P1;durP2;ratioP2;P2;SDS_P1;SDS_P2;PMS_P1;PMS_P2;Temp;Humidity;BMP_temperature;BMP_pressure;BME280_temperature;BME280_humidity;BME280_pressure;Samples;Min_cycle;Max_cycle;Signal;HPM_P1;HPM_P2
2024/01/09 00:00:26;;;;;;;24.15;22.58;;;;;;;;;;5012813;28;20205;-76
2024/01/09 00:02:54;;;;;;;24.10;22.15;;;;;;;;;;5012919;28;20590;-75
2024/01/09 00:05:21;;;;;;;24.08;22.65;;;;;;;;;;5013024;28;20300;-80
2024/01/09 00:07:48;;;;;;;23.98;22.48;;;;;;;;;;5013010;28;20250;-76
2024/01/09 00:10:16;;;;;;;23.30;21.90;;;;;;;;;;5013218;28;20209;-78
2024/01/09 00:12:43;;;;;;;24.77;22.95;;;;;;;;;;5012780;28;20209;-78
2024/01/09 00:15:10;;;;;;;23.30;21.80;;;;;;;;;;5013246;28;20213;-77
2024/01/09 00:17:37;;;;;;;25.75;23.90;;;;;;;;;;5013147;28;20229;-79
2024/01/09 00:20:06;;;;;;;25.48;23.58;;;;;;;;;;5003736;28;20284;-78
2024/01/09 00:22:33;;;;;;;23.75;22.25;;;;;;;;;;4996751;28;20210;-76
2024/01/09 00:25:00;;;;;;;25.45;23.42;;;;;;;;;;4996923;28;20210;-76
2024/01/09 00:27:27;;;;;;;25.38;23.70;;;;;;;;;;4996752;28;20226;-79
2024/01/09 00:29:54;;;;;;;25.55;23.60;;;;;;;;;;4997309;28;20214;-80
2024/01/09 00:32:22;;;;;;;23.17;21.85;;;;;;;;;;4996895;28;20226;-78
2024/01/09 00:34:49;;;;;;;22.85;21.55;;;;;;;;;;5008777;28;20292;-79
2024/01/09 00:37:17;;;;;;;24.80;23.13;;;;;;;;;;5005311;28;20234;-78
2024/01/09 00:39:44;;;;;;;23.25;21.75;;;;;;;;;;4997024;28;20198;-79
2024/01/09 00:42:11;;;;;;;23.95;22.50;;;;;;;;;;4996635;28;20253;-80
2024/01/09 00:44:38;;;;;;;24.63;22.98;;;;;;;;;;4996961;28;20616;-78
2024/01/09 00:47:05;;;;;;;23.33;21.67;;;;;;;;;;4996535;28;20234;-76
2024/01/09 00:49:32;;;;;;;23.10;21.80;;;;;;;;;;4998339;28;20244;-77
2024/01/09 00:52:00;;;;;;;24.52;22.85;;;;;;;;;;4996278;28;20229;-78
2024/01/09 00:54:29;;;;;;;24.05;22.45;;;;;;;;;;4996486;28;20213;-78
2024/01/09 00:56:56;;;;;;;23.10;21.60;;;;;;;;;;4996624;28;20230;-78
2024/01/09 00:59:23;;;;;;;22.08;20.88;;;;;;;;;;4997221;28;20288;-79
2024/01/09 01:01:50;;;;;;;23.33;22.02;;;;;;;;;;4996807;28;20969;-79
2024/01/09 01:04:17;;;;;;;24.77;23.17;;;;;;;;;;4996497;28;20293;-78
2024/01/09 01:06:45;;;;;;;23.25;21.73;;;;;;;;;;4996489;28;20261;-79
2024/01/09 01:09:12;;;;;;;25.17;23.55;;;;;;;;;;4996320;28;20218;-78
2024/01/09 01:11:41;;;;;;;25.98;24.30;;;;;;;;;;4995712;28;20768;-78
2024/01/09 01:14:08;;;;;;;25.85;24.27;;;;;;;;;;4996630;28;20210;-78
2024/01/09 01:16:35;;;;;;;24.25;22.83;;;;;;;;;;4996187;28;20245;-79
2024/01/09 01:19:02;;;;;;;23.77;22.38;;;;;;;;;;4996616;28;20210;-79
2024/01/09 01:21:29;;;;;;;25.25;23.65;;;;;;;;;;4995943;28;20203;-79
2024/01/09 01:23:56;;;;;;;25.45;23.95;;;;;;;;;;4996241;28;20677;-77
2024/01/09 01:26:23;;;;;;;24.70;22.88;;;;;;;;;;4996157;28;20206;-78
2024/01/09 01:28:52;;;;;;;25.15;23.50;;;;;;;;;;4996498;28;20715;-78
2024/01/09 01:31:19;;;;;;;25.08;23.50;;;;;;;;;;4994603;28;20231;-79
2024/01/09 01:33:46;;;;;;;25.05;23.27;;;;;;;;;;4996323;28;20214;-80
2024/01/09 01:36:16;;;;;;;25.50;23.73;;;;;;;;;;4996076;28;20253;-78
2024/01/09 01:38:43;;;;;;;25.17;23.27;;;;;;;;;;4995822;28;20662;-79
2024/01/09 01:41:10;;;;;;;24.88;23.33;;;;;;;;;;4995718;28;20198;-78
2024/01/09 01:43:37;;;;;;;27.63;25.35;;;;;;;;;;4996670;28;20206;-78
2024/01/09 01:46:05;;;;;;;26.83;24.73;;;;;;;;;;4996134;28;20252;-78
2024/01/09 01:48:33;;;;;;;25.25;23.65;;;;;;;;;;4995225;28;20638;-78
2024/01/09 01:51:00;;;;;;;24.48;22.98;;;;;;;;;;4994423;28;20757;-77
2024/01/09 01:53:28;;;;;;;24.60;22.80;;;;;;;;;;4995268;28;20272;-77
2024/01/09 01:55:55;;;;;;;25.02;23.35;;;;;;;;;;4995199;28;20214;-77
2024/01/09 01:58:24;;;;;;;25.88;23.98;;;;;;;;;;4994906;28;20226;-78
2024/01/09 02:00:51;;;;;;;26.83;24.77;;;;;;;;;;4994141;28;20669;-78
2024/01/09 02:03:19;;;;;;;24.63;23.13;;;;;;;;;;4994832;28;20725;-77
2024/01/09 02:05:48;;;;;;;24.38;22.77;;;;;;;;;;4995048;28;20613;-78
2024/01/09 02:08:15;;;;;;;26.30;24.30;;;;;;;;;;4994575;28;20234;-77
2024/01/09 02:10:42;;;;;;;25.00;23.15;;;;;;;;;;4994372;28;20194;-77
2024/01/09 02:13:09;;;;;;;25.40;23.58;;;;;;;;;;4994272;28;20226;-78
2024/01/09 02:15:37;;;;;;;25.35;23.70;;;;;;;;;;4994502;28;20210;-78
2024/01/09 02:18:05;;;;;;;25.60;23.73;;;;;;;;;;4993859;28;20706;-77
2024/01/09 02:20:33;;;;;;;27.55;25.40;;;;;;;;;;4993643;28;20268;-78
2024/01/09 02:23:00;;;;;;;24.83;23.10;;;;;;;;;;4994456;28;20272;-77
2024/01/09 02:25:27;;;;;;;25.02;23.35;;;;;;;;;;4994216;28;20689;-78
2024/01/09 02:27:58;;;;;;;25.48;23.58;;;;;;;;;;5030136;28;20283;-79
2024/01/09 02:30:56;;;;;;;26.80;24.70;;;;;;;;;;5022046;28;20217;-79
2024/01/09 02:33:25;;;;;;;26.42;24.42;;;;;;;;;;5003126;28;20194;-78
2024/01/09 02:35:52;;;;;;;25.60;23.63;;;;;;;;;;5002991;28;20213;-77
2024/01/09 02:38:20;;;;;;;24.50;22.85;;;;;;;;;;5012999;28;20229;-77
2024/01/09 02:40:47;;;;;;;24.35;22.75;;;;;;;;;;5011776;28;20201;-78
2024/01/09 02:43:14;;;;;;;27.58;25.35;;;;;;;;;;5012496;28;20209;-79
2024/01/09 02:45:41;;;;;;;25.33;23.67;;;;;;;;;;5012269;28;20688;-79
2024/01/09 02:48:08;;;;;;;25.52;23.75;;;;;;;;;;5017388;28;20274;-80
2024/01/09 02:50:37;;;;;;;26.48;24.40;;;;;;;;;;5031639;28;20205;-78
2024/01/09 02:53:04;;;;;;;26.10;24.30;;;;;;;;;;5031961;28;20255;-78
2024/01/09 02:55:31;;;;;;;25.67;24.00;;;;;;;;;;5032277;28;20209;-78
2024/01/09 02:57:58;;;;;;;26.15;24.23;;;;;;;;;;5032301;28;20233;-78
2024/01/09 03:00:25;;;;;;;24.65;23.15;;;;;;;;;;5031738;28;20208;-78
2024/01/09 03:02:52;;;;;;;27.15;24.85;;;;;;;;;;5031846;28;20205;-77
2024/01/09 03:05:19;;;;;;;22.95;21.58;;;;;;;;;;5032386;28;20213;-78
2024/01/09 03:07:48;;;;;;;26.67;24.60;;;;;;;;;;5031706;28;20279;-78
2024/01/09 03:10:15;;;;;;;26.02;24.25;;;;;;;;;;5032527;28;20216;-79
2024/01/09 03:12:42;;;;;;;24.88;23.10;;;;;;;;;;5031252;28;20298;-78
2024/01/09 03:15:10;;;;;;;26.75;24.83;;;;;;;;;;5031961;28;20259;-79
2024/01/09 03:17:37;;;;;;;23.42;21.95;;;;;;;;;;5031036;28;20311;-78
2024/01/09 03:20:05;;;;;;;24.75;23.13;;;;;;;;;;5032057;28;20212;-77
2024/01/09 03:22:31;;;;;;;24.90;23.08;;;;;;;;;;5031484;28;20209;-78
2024/01/09 03:25:00;;;;;;;24.98;23.38;;;;;;;;;;5031856;28;20205;-77
2024/01/09 03:27:27;;;;;;;23.95;22.55;;;;;;;;;;5031560;28;20217;-77
2024/01/09 03:29:54;;;;;;;25.15;23.25;;;;;;;;;;5031697;28;20196;-78
2024/01/09 03:32:21;;;;;;;25.98;23.98;;;;;;;;;;5031642;28;20228;-79
2024/01/09 03:34:48;;;;;;;25.52;23.52;;;;;;;;;;5032009;28;20251;-78
2024/01/09 03:37:15;;;;;;;25.20;22.90;;;;;;;;;;5030729;28;20221;-79
2024/01/09 03:39:41;;;;;;;28.02;25.27;;;;;;;;;;5031803;28;20623;-77
2024/01/09 03:42:10;;;;;;;25.92;24.23;;;;;;;;;;5031148;28;20278;-78
2024/01/09 03:44:37;;;;;;;25.88;24.00;;;;;;;;;;5031307;28;20208;-78
2024/01/09 03:47:04;;;;;;;25.02;23.40;;;;;;;;;;5031434;28;20278;-79
2024/01/09 03:49:31;;;;;;;27.10;25.20;;;;;;;;;;5031433;28;20205;-79
2024/01/09 03:51:58;;;;;;;25.83;24.00;;;;;;;;;;5030847;28;20278;-79
2024/01/09 03:54:25;;;;;;;25.67;23.65;;;;;;;;;;5031797;28;20209;-77
2024/01/09 03:56:52;;;;;;;24.10;22.45;;;;;;;;;;5035569;28;20232;-78
2024/01/09 03:59:20;;;;;;;23.67;22.15;;;;;;;;;;5035433;28;20258;-79
2024/01/09 04:01:47;;;;;;;26.17;24.25;;;;;;;;;;5034958;28;20254;-78
2024/01/09 04:04:14;;;;;;;24.35;22.85;;;;;;;;;;5035115;28;20196;-79
2024/01/09 04:06:44;;;;;;;26.27;24.38;;;;;;;;;;5034916;28;20278;-79
2024/01/09 04:09:12;;;;;;;26.05;24.15;;;;;;;;;;5034682;28;20754;-78
2024/01/09 04:11:42;;;;;;;27.02;25.02;;;;;;;;;;5034872;28;20221;-78
2024/01/09 04:14:09;;;;;;;25.73;23.88;;;;;;;;;;5035529;28;20259;-79
2024/01/09 04:16:38;;;;;;;26.10;24.20;;;;;;;;;;5035206;28;20359;-79
2024/01/09 04:19:05;;;;;;;25.95;23.85;;;;;;;;;;5035232;28;20204;-78
2024/01/09 04:21:32;;;;;;;25.92;24.23;;;;;;;;;;5034362;28;20211;-78
2024/01/09 04:23:59;;;;;;;26.48;24.45;;;;;;;;;;5034886;28;20213;-78
2024/01/09 04:26:26;;;;;;;25.45;23.50;;;;;;;;;;5034722;28;20255;-78
2024/01/09 04:28:53;;;;;;;24.90;23.20;;;;;;;;;;5034896;28;20251;-77
2024/01/09 04:31:20;;;;;;;26.38;24.48;;;;;;;;;;5033813;28;20672;-78
2024/01/09 04:33:48;;;;;;;26.00;24.00;;;;;;;;;;5034682;28;20209;-77
2024/01/09 04:36:16;;;;;;;23.35;21.98;;;;;;;;;;4995793;28;20206;-79
2024/01/09 04:38:43;;;;;;;25.80;23.92;;;;;;;;;;4995388;28;20216;-77
2024/01/09 04:41:15;;;;;;;22.17;20.90;;;;;;;;;;4994779;28;20272;-79
2024/01/09 04:43:42;;;;;;;25.67;23.77;;;;;;;;;;4995043;28;20257;-79
2024/01/09 04:46:09;;;;;;;25.75;23.85;;;;;;;;;;4995774;28;20210;-77
2024/01/09 04:48:36;;;;;;;26.27;24.30;;;;;;;;;;4995108;28;20228;-77
2024/01/09 04:51:04;;;;;;;24.02;22.55;;;;;;;;;;4995164;28;20206;-78
2024/01/09 04:53:31;;;;;;;25.10;23.42;;;;;;;;;;4995020;28;20230;-78
2024/01/09 04:55:58;;;;;;;24.42;22.63;;;;;;;;;;4995461;28;20206;-78
2024/01/09 04:58:25;;;;;;;25.95;24.10;;;;;;;;;;4995158;28;20562;-77
2024/01/09 05:00:52;;;;;;;23.98;22.58;;;;;;;;;;4994689;28;20225;-78
2024/01/09 05:03:19;;;;;;;25.77;23.58;;;;;;;;;;4995270;28;20206;-78
2024/01/09 05:05:46;;;;;;;26.42;24.45;;;;;;;;;;4994152;28;20202;-77
2024/01/09 05:08:14;;;;;;;25.80;24.00;;;;;;;;;;4993752;28;20808;-80
2024/01/09 05:10:41;;;;;;;22.85;21.50;;;;;;;;;;4994348;28;20217;-79
2024/01/09 05:13:09;;;;;;;23.30;21.70;;;;;;;;;;4994483;28;20225;-79
2024/01/09 05:15:36;;;;;;;24.77;23.25;;;;;;;;;;4994915;28;20210;-77
2024/01/09 05:18:03;;;;;;;24.20;22.60;;;;;;;;;;4994736;28;20230;-79
2024/01/09 05:20:30;;;;;;;24.85;23.13;;;;;;;;;;4994441;28;20214;-78
2024/01/09 05:22:57;;;;;;;24.50;22.63;;;;;;;;;;4994826;28;20199;-79
2024/01/09 05:25:26;;;;;;;26.00;24.10;;;;;;;;;;4994764;28;20443;-78
2024/01/09 05:27:53;;;;;;;25.65;23.77;;;;;;;;;;4994665;28;21080;-77
2024/01/09 05:30:20;;;;;;;25.45;23.48;;;;;;;;;;4994346;28;20199;-79
2024/01/09 05:32:47;;;;;;;26.20;24.35;;;;;;;;;;4994081;28;20288;-77
2024/01/09 05:35:14;;;;;;;23.40;21.80;;;;;;;;;;4994496;28;20324;-77
2024/01/09 05:37:41;;;;;;;25.42;23.63;;;;;;;;;;4994221;28;20230;-77
2024/01/09 05:40:09;;;;;;;27.50;25.48;;;;;;;;;;4994506;28;20225;-77
2024/01/09 05:42:37;;;;;;;24.98;23.38;;;;;;;;;;4993055;28;20678;-79
2024/01/09 05:45:04;;;;;;;26.30;24.40;;;;;;;;;;4994271;28;20261;-77
2024/01/09 05:47:31;;;;;;;26.35;24.58;;;;;;;;;;4993810;28;20288;-78
2024/01/09 05:49:58;;;;;;;25.15;23.42;;;;;;;;;;4994021;28;20237;-77
2024/01/09 05:52:25;;;;;;;26.75;24.70;;;;;;;;;;4993062;28;20230;-79
2024/01/09 05:54:52;;;;;;;25.85;23.75;;;;;;;;;;4994088;28;20590;-78
2024/01/09 05:57:20;;;;;;;26.30;24.15;;;;;;;;;;4994656;28;20226;-78
2024/01/09 05:59:48;;;;;;;26.02;24.10;;;;;;;;;;4994449;28;20214;-79
2024/01/09 06:02:15;;;;;;;26.90;24.60;;;;;;;;;;4994170;28;20265;-78
2024/01/09 06:04:42;;;;;;;25.38;23.70;;;;;;;;;;4994338;28;20611;-77
2024/01/09 06:07:09;;;;;;;26.48;24.52;;;;;;;;;;4994062;28;20273;-78
2024/01/09 06:09:36;;;;;;;26.35;24.33;;;;;;;;;;4994347;28;20265;-78
2024/01/09 06:12:03;;;;;;;27.27;25.20;;;;;;;;;;4993636;28;20206;-79
2024/01/09 06:14:30;;;;;;;26.95;24.95;;;;;;;;;;4994385;28;20210;-77
2024/01/09 06:16:59;;;;;;;25.80;23.95;;;;;;;;;;4994394;28;20275;-79
2024/01/09 06:19:26;;;;;;;26.00;24.20;;;;;;;;;;5006670;28;20800;-78
2024/01/09 06:21:53;;;;;;;24.17;22.67;;;;;;;;;;4993741;28;20206;-78
2024/01/09 06:24:20;;;;;;;25.40;23.58;;;;;;;;;;4993933;28;20210;-76
2024/01/09 06:26:47;;;;;;;26.17;24.10;;;;;;;;;;4993770;28;20233;-77
2024/01/09 06:29:14;;;;;;;24.73;23.02;;;;;;;;;;4993443;28;20740;-77
2024/01/09 06:31:41;;;;;;;24.02;22.48;;;;;;;;;;4993255;28;20543;-77
2024/01/09 06:34:09;;;;;;;25.20;23.42;;;;;;;;;;4993808;28;20226;-77
2024/01/09 06:36:36;;;;;;;27.55;25.60;;;;;;;;;;4993564;28;20304;-77
2024/01/09 06:39:03;;;;;;;25.35;23.45;;;;;;;;;;4993681;28;20206;-78
2024/01/09 06:41:30;;;;;;;26.52;24.60;;;;;;;;;;4992920;28;20268;-77
2024/01/09 06:43:59;;;;;;;25.65;23.85;;;;;;;;;;4993427;28;20199;-78
2024/01/09 06:46:26;;;;;;;26.33;24.48;;;;;;;;;;4993187;28;20241;-78
2024/01/09 06:48:53;;;;;;;25.02;23.38;;;;;;;;;;4993606;28;20210;-77
2024/01/09 06:51:21;;;;;;;28.17;25.95;;;;;;;;;;4993613;28;20733;-78
2024/01/09 06:53:48;;;;;;;27.88;25.70;;;;;;;;;;4993604;28;20637;-77
2024/01/09 06:56:15;;;;;;;25.80;24.00;;;;;;;;;;4993602;28;20206;-77
2024/01/09 06:58:42;;;;;;;24.85;23.15;;;;;;;;;;4993112;28;20253;-78
2024/01/09 07:01:09;;;;;;;29.23;25.75;;;;;;;;;;4992826;28;20265;-77
2024/01/09 07:03:36;;;;;;;27.23;24.80;;;;;;;;;;4993225;28;20250;-77
2024/01/09 07:06:03;;;;;;;24.88;23.08;;;;;;;;;;4993282;28;20875;-77
2024/01/09 07:08:32;;;;;;;27.25;25.10;;;;;;;;;;5011461;28;20237;-77
2024/01/09 07:10:59;;;;;;;26.23;24.02;;;;;;;;;;5020009;28;20597;-76
2024/01/09 07:13:26;;;;;;;27.40;25.05;;;;;;;;;;5010252;28;20685;-78
2024/01/09 07:15:53;;;;;;;29.08;26.67;;;;;;;;;;5001871;28;20217;-78
2024/01/09 07:18:20;;;;;;;27.00;24.83;;;;;;;;;;4993170;28;20222;-78
2024/01/09 07:20:47;;;;;;;26.50;24.40;;;;;;;;;;4992777;28;20252;-77
2024/01/09 07:23:14;;;;;;;27.15;25.20;;;;;;;;;;4992943;28;20205;-78
2024/01/09 07:25:43;;;;;;;25.63;23.75;;;;;;;;;;4992500;28;20210;-77
2024/01/09 07:28:10;;;;;;;25.58;23.70;;;;;;;;;;4992655;28;20222;-78
2024/01/09 07:30:37;;;;;;;25.65;23.85;;;;;;;;;;4992207;28;20206;-78
2024/01/09 07:33:04;;;;;;;29.10;26.88;;;;;;;;;;4992751;28;20272;-77
2024/01/09 07:35:34;;;;;;;27.92;25.73;;;;;;;;;;4992753;28;20199;-77
2024/01/09 07:38:01;;;;;;;27.02;24.73;;;;;;;;;;5008525;28;20256;-78
2024/01/09 07:40:28;;;;;;;26.45;24.55;;;;;;;;;;5004525;28;20213;-79
2024/01/09 07:42:58;;;;;;;26.85;24.83;;;;;;;;;;5016875;28;20320;-78
2024/01/09 07:45:28;;;;;;;28.13;25.98;;;;;;;;;;5031540;28;20205;-77
2024/01/09 07:47:55;;;;;;;25.65;23.95;;;;;;;;;;5032778;28;20314;-77
2024/01/09 07:50:22;;;;;;;28.35;25.90;;;;;;;;;;5032160;28;20200;-77
2024/01/09 07:52:50;;;;;;;28.05;25.73;;;;;;;;;;5031224;28;20251;-77
2024/01/09 07:55:18;;;;;;;27.17;25.13;;;;;;;;;;5032012;28;20212;-77
2024/01/09 07:57:44;;;;;;;28.42;26.20;;;;;;;;;;5032077;28;20228;-76
2024/01/09 08:00:14;;;;;;;27.40;24.95;;;;;;;;;;5032282;28;20262;-76
2024/01/09 08:02:41;;;;;;;26.58;24.65;;;;;;;;;;5030887;28;20204;-76
2024/01/09 08:05:08;;;;;;;26.75;24.63;;;;;;;;;;5031952;28;20358;-76
2024/01/09 08:07:36;;;;;;;27.25;24.58;;;;;;;;;;5031653;28;20668;-76
2024/01/09 08:10:03;;;;;;;26.45;24.55;;;;;;;;;;5030906;28;20270;-76
2024/01/09 08:12:31;;;;;;;26.98;25.02;;;;;;;;;;5030722;28;20290;-76
2024/01/09 08:14:58;;;;;;;27.70;24.70;;;;;;;;;;5031346;28;20215;-78
2024/01/09 08:17:27;;;;;;;27.23;25.27;;;;;;;;;;4996226;28;20226;-77
2024/01/09 08:19:54;;;;;;;25.73;23.88;;;;;;;;;;4998347;28;20681;-79
2024/01/09 08:22:22;;;;;;;27.67;25.48;;;;;;;;;;5029064;28;20228;-87
2024/01/09 08:24:49;;;;;;;26.45;24.45;;;;;;;;;;5014974;28;20264;-89
2024/01/09 08:27:16;;;;;;;28.38;25.98;;;;;;;;;;5017574;28;20249;-87
2024/01/09 08:29:44;;;;;;;29.05;26.67;;;;;;;;;;5016189;28;20210;-87
2024/01/09 08:32:15;;;;;;;26.70;24.45;;;;;;;;;;5016083;28;20209;-87
2024/01/09 08:34:43;;;;;;;26.33;24.48;;;;;;;;;;5009923;28;20248;-90
2024/01/09 08:37:10;;;;;;;24.95;23.30;;;;;;;;;;5026736;28;20217;-89
2024/01/09 08:39:37;;;;;;;25.25;23.45;;;;;;;;;;5034946;28;20738;-87
2024/01/09 08:42:05;;;;;;;25.85;24.05;;;;;;;;;;5035652;28;20213;-92
2024/01/09 08:44:32;;;;;;;25.77;23.92;;;;;;;;;;5038579;28;20596;-89
2024/01/09 08:46:59;;;;;;;25.33;23.63;;;;;;;;;;5011194;28;20764;-75
2024/01/09 08:49:26;;;;;;;24.70;22.83;;;;;;;;;;5015595;28;20206;-77
2024/01/09 08:51:55;;;;;;;24.35;22.88;;;;;;;;;;4998502;28;20202;-77
2024/01/09 08:54:22;;;;;;;26.02;24.02;;;;;;;;;;5015215;28;20689;-85
2024/01/09 08:56:50;;;;;;;26.00;24.40;;;;;;;;;;5019063;28;20240;-75
2024/01/09 08:59:17;;;;;;;27.05;25.05;;;;;;;;;;5021171;28;20237;-86
2024/01/09 09:01:44;;;;;;;25.83;24.00;;;;;;;;;;5017813;28;20592;-75
2024/01/09 09:04:11;;;;;;;27.85;25.55;;;;;;;;;;5003046;28;20218;-74
2024/01/09 09:06:38;;;;;;;26.63;24.63;;;;;;;;;;5011999;28;21052;-75
2024/01/09 09:09:07;;;;;;;26.08;24.23;;;;;;;;;;5015069;28;20287;-74
2024/01/09 09:11:35;;;;;;;27.00;25.13;;;;;;;;;;5014513;28;20208;-75
2024/01/09 09:14:03;;;;;;;25.20;23.40;;;;;;;;;;5015268;28;20213;-76
2024/01/09 09:16:30;;;;;;;26.50;24.67;;;;;;;;;;5014146;28;20218;-74
2024/01/09 09:18:57;;;;;;;24.63;22.92;;;;;;;;;;5015099;28;20268;-74
2024/01/09 09:21:24;;;;;;;26.65;24.77;;;;;;;;;;5020071;28;20202;-85
2024/01/09 09:23:51;;;;;;;26.42;24.35;;;;;;;;;;5002416;28;20261;-81
2024/01/09 09:26:19;;;;;;;24.33;22.98;;;;;;;;;;4999776;28;20264;-86
2024/01/09 09:28:47;;;;;;;27.25;25.13;;;;;;;;;;4998159;28;20206;-87
2024/01/09 09:31:15;;;;;;;26.30;24.25;;;;;;;;;;4997695;28;20298;-82
2024/01/09 09:33:42;;;;;;;24.67;22.88;;;;;;;;;;5001242;28;20223;-82
2024/01/09 09:36:10;;;;;;;23.63;22.10;;;;;;;;;;5001851;28;20194;-86
2024/01/09 09:38:37;;;;;;;25.27;23.70;;;;;;;;;;5010389;28;20250;-88
2024/01/09 09:41:05;;;;;;;23.73;22.20;;;;;;;;;;5011722;28;20237;-87
2024/01/09 09:43:34;;;;;;;24.48;22.98;;;;;;;;;;5011010;28;20258;-87
2024/01/09 09:46:03;;;;;;;25.98;24.08;;;;;;;;;;5037476;28;20287;-76
2024/01/09 09:48:31;;;;;;;25.67;24.02;;;;;;;;;;5022517;28;20749;-74
2024/01/09 09:50:58;;;;;;;28.00;25.70;;;;;;;;;;4994129;28;20214;-75
2024/01/09 09:53:30;;;;;;;26.75;24.98;;;;;;;;;;5012399;28;20229;-75
2024/01/09 09:55:58;;;;;;;26.63;24.63;;;;;;;;;;5034850;28;20204;-87
2024/01/09 09:58:25;;;;;;;27.17;24.73;;;;;;;;;;5037823;28;20232;-86
2024/01/09 10:00:56;;;;;;;24.25;22.65;;;;;;;;;;5035912;28;20518;-76
2024/01/09 10:03:23;;;;;;;25.85;24.17;;;;;;;;;;5033875;28;20197;-74
2024/01/09 10:05:50;;;;;;;29.35;26.92;;;;;;;;;;5029871;28;20248;-75
2024/01/09 10:08:20;;;;;;;25.05;23.25;;;;;;;;;;5012594;28;20233;-76
2024/01/09 10:10:48;;;;;;;23.35;21.95;;;;;;;;;;5019354;28;20216;-88
2024/01/09 10:13:15;;;;;;;26.55;24.55;;;;;;;;;;5019632;28;20209;-88
2024/01/09 10:15:57;;;;;;;26.77;24.20;;;;;;;;;;5005709;28;20260;-75
2024/01/09 10:18:29;;;;;;;26.80;24.85;;;;;;;;;;5011662;28;20260;-75
2024/01/09 10:20:56;;;;;;;25.48;23.77;;;;;;;;;;5013639;28;20252;-76
2024/01/09 10:23:23;;;;;;;27.20;25.15;;;;;;;;;;5014097;28;20208;-75
2024/01/09 10:25:50;;;;;;;25.02;23.42;;;;;;;;;;5014135;28;20218;-76
2024/01/09 10:28:17;;;;;;;26.85;24.92;;;;;;;;;;5014324;28;20245;-76
2024/01/09 10:30:45;;;;;;;28.02;25.92;;;;;;;;;;5013601;28;20720;-77
2024/01/09 10:33:12;;;;;;;26.85;24.75;;;;;;;;;;5032405;28;20255;-75
2024/01/09 10:35:40;;;;;;;37.75;29.08;;;;;;;;;;5010001;28;20658;-75
2024/01/09 10:38:08;;;;;;;25.38;23.40;;;;;;;;;;4993141;28;20222;-75
2024/01/09 10:40:36;;;;;;;25.00;23.17;;;;;;;;;;4993847;28;20556;-75
2024/01/09 10:43:03;;;;;;;27.98;25.88;;;;;;;;;;5008956;28;20259;-75
2024/01/09 10:45:31;;;;;;;25.23;23.38;;;;;;;;;;5013799;28;20206;-76
2024/01/09 10:47:59;;;;;;;27.10;25.20;;;;;;;;;;4994395;28;20265;-76
2024/01/09 10:50:26;;;;;;;27.75;25.40;;;;;;;;;;4993328;28;20210;-75
2024/01/09 10:52:55;;;;;;;25.10;23.27;;;;;;;;;;4993747;28;20210;-75
2024/01/09 10:55:24;;;;;;;28.23;26.08;;;;;;;;;;5000815;28;20218;-77
2024/01/09 10:57:51;;;;;;;28.25;26.30;;;;;;;;;;4993770;28;20284;-75
2024/01/09 11:00:18;;;;;;;27.00;25.20;;;;;;;;;;4993453;28;20289;-76
2024/01/09 11:02:45;;;;;;;28.35;25.95;;;;;;;;;;4992864;28;20280;-76
2024/01/09 11:05:13;;;;;;;27.13;25.05;;;;;;;;;;4993345;28;20202;-76
2024/01/09 11:07:43;;;;;;;26.63;24.50;;;;;;;;;;5013944;28;20270;-76
2024/01/09 11:10:16;;;;;;;25.45;23.50;;;;;;;;;;5032402;28;20669;-77
2024/01/09 11:12:43;;;;;;;25.58;23.90;;;;;;;;;;5022569;28;20797;-76
2024/01/09 11:15:12;;;;;;;26.48;24.77;;;;;;;;;;5012373;28;20268;-77
2024/01/09 11:17:41;;;;;;;25.60;23.75;;;;;;;;;;5021158;28;20225;-77
2024/01/09 11:20:09;;;;;;;25.42;23.60;;;;;;;;;;5012896;28;20255;-76
2024/01/09 11:22:36;;;;;;;25.15;23.45;;;;;;;;;;5013111;28;20209;-75
2024/01/09 11:25:05;;;;;;;24.98;23.08;;;;;;;;;;5011655;28;20241;-76
2024/01/09 11:27:41;;;;;;;26.25;24.45;;;;;;;;;;5012054;28;20229;-78
2024/01/09 11:30:09;;;;;;;24.23;22.65;;;;;;;;;;4991735;28;20871;-76
2024/01/09 11:32:37;;;;;;;25.20;23.40;;;;;;;;;;4992206;28;20270;-76
2024/01/09 11:35:11;;;;;;;25.30;23.55;;;;;;;;;;4999438;28;20577;-76
2024/01/09 11:37:39;;;;;;;26.90;25.00;;;;;;;;;;5011815;28;20253;-77
2024/01/09 11:40:08;;;;;;;25.52;23.73;;;;;;;;;;5007161;28;20637;-78
2024/01/09 11:42:36;;;;;;;25.08;23.40;;;;;;;;;;4996303;28;20218;-69
2024/01/09 11:45:07;;;;;;;24.42;22.73;;;;;;;;;;5015965;28;20205;-73
2024/01/09 11:47:36;;;;;;;25.73;23.70;;;;;;;;;;5017744;28;20229;-73
2024/01/09 11:50:05;;;;;;;24.85;23.00;;;;;;;;;;5010343;28;20213;-73
2024/01/09 11:52:33;;;;;;;25.80;24.10;;;;;;;;;;5010425;28;20255;-73
2024/01/09 11:55:00;;;;;;;25.17;23.50;;;;;;;;;;5010697;28;20709;-74
2024/01/09 11:57:26;;;;;;;24.38;22.83;;;;;;;;;;5010848;28;20263;-73
2024/01/09 11:59:53;;;;;;;23.95;22.48;;;;;;;;;;5011241;28;20253;-74
2024/01/09 12:02:22;;;;;;;25.45;23.95;;;;;;;;;;5010525;28;20213;-74
2024/01/09 12:04:49;;;;;;;24.92;23.35;;;;;;;;;;5011169;28;20197;-75
2024/01/09 12:07:16;;;;;;;26.33;24.55;;;;;;;;;;5011038;28;20295;-74
2024/01/09 12:09:43;;;;;;;25.63;23.92;;;;;;;;;;5014718;28;20267;-74
2024/01/09 12:12:10;;;;;;;26.70;24.73;;;;;;;;;;5030434;28;20204;-74
2024/01/09 12:14:37;;;;;;;25.95;24.25;;;;;;;;;;5030751;28;20676;-73
2024/01/09 12:17:18;;;;;;;25.20;23.40;;;;;;;;;;5033517;28;20232;-74
2024/01/09 12:19:46;;;;;;;24.48;23.05;;;;;;;;;;5034277;28;20316;-73
2024/01/09 12:22:14;;;;;;;25.05;23.13;;;;;;;;;;5004004;28;20210;-76
2024/01/09 12:24:42;;;;;;;25.17;23.55;;;;;;;;;;4994857;28;20264;-73
2024/01/09 12:27:09;;;;;;;25.25;23.38;;;;;;;;;;5002275;28;20226;-73
2024/01/09 12:29:36;;;;;;;24.30;22.70;;;;;;;;;;5014119;28;20291;-74
2024/01/09 12:32:03;;;;;;;24.20;22.55;;;;;;;;;;5010886;28;20244;-75
2024/01/09 12:34:30;;;;;;;25.02;23.20;;;;;;;;;;5014138;28;20932;-74
2024/01/09 12:37:00;;;;;;;24.10;22.60;;;;;;;;;;5006076;28;20362;-74
2024/01/09 12:39:27;;;;;;;26.20;24.15;;;;;;;;;;5009231;28;20684;-74
2024/01/09 12:42:05;;;;;;;24.73;22.90;;;;;;;;;;5017675;28;20205;-73
2024/01/09 12:44:32;;;;;;;26.42;24.00;;;;;;;;;;5008351;28;20606;-73
2024/01/09 12:46:59;;;;;;;23.85;22.25;;;;;;;;;;5012928;28;20236;-74
2024/01/09 12:49:26;;;;;;;24.02;22.52;;;;;;;;;;5030238;28;20235;-73
2024/01/09 12:51:56;;;;;;;23.27;21.83;;;;;;;;;;5033267;28;20208;-73
2024/01/09 12:54:25;;;;;;;24.63;22.90;;;;;;;;;;5033770;28;20225;-74
2024/01/09 12:56:52;;;;;;;23.48;21.98;;;;;;;;;;5028735;28;20229;-74
2024/01/09 12:59:22;;;;;;;25.35;23.65;;;;;;;;;;5013167;28;20213;-75
2024/01/09 13:01:49;;;;;;;24.52;22.67;;;;;;;;;;5009886;28;20211;-75
2024/01/09 13:04:16;;;;;;;24.20;22.70;;;;;;;;;;5013830;28;20209;-75
2024/01/09 13:06:43;;;;;;;25.85;24.08;;;;;;;;;;5013595;28;20229;-74
2024/01/09 13:09:10;;;;;;;25.08;23.27;;;;;;;;;;5013642;28;20677;-74
2024/01/09 13:11:39;;;;;;;24.02;22.42;;;;;;;;;;5012932;28;20245;-74
2024/01/09 13:14:06;;;;;;;24.20;22.50;;;;;;;;;;5012485;28;20241;-75
2024/01/09 13:16:33;;;;;;;23.73;22.02;;;;;;;;;;5012122;28;20661;-75
2024/01/09 13:19:00;;;;;;;25.88;23.98;;;;;;;;;;5009473;28;20971;-75
2024/01/09 13:21:27;;;;;;;25.17;23.58;;;;;;;;;;4992401;28;20682;-74
2024/01/09 13:23:54;;;;;;;25.20;23.38;;;;;;;;;;4993423;28;20740;-74
2024/01/09 13:26:21;;;;;;;24.15;22.63;;;;;;;;;;4993663;28;20230;-74
2024/01/09 13:28:49;;;;;;;23.65;22.15;;;;;;;;;;4992557;28;20206;-74
2024/01/09 13:31:17;;;;;;;23.67;22.17;;;;;;;;;;4993091;28;20206;-74
2024/01/09 13:33:44;;;;;;;25.55;23.85;;;;;;;;;;4992987;28;20313;-73
2024/01/09 13:36:11;;;;;;;25.75;24.05;;;;;;;;;;4993872;28;20273;-74
2024/01/09 13:38:38;;;;;;;26.52;24.73;;;;;;;;;;4993606;28;20261;-74
2024/01/09 13:41:07;;;;;;;25.10;23.45;;;;;;;;;;4992677;28;20272;-75
2024/01/09 13:43:34;;;;;;;24.60;22.88;;;;;;;;;;4993417;28;20685;-74
2024/01/09 13:46:02;;;;;;;24.15;22.65;;;;;;;;;;4993669;28;20609;-74
2024/01/09 13:48:29;;;;;;;24.13;22.52;;;;;;;;;;4993507;28;20298;-73
2024/01/09 13:50:57;;;;;;;24.95;23.13;;;;;;;;;;4993214;28;20210;-74
2024/01/09 13:53:24;;;;;;;24.38;22.77;;;;;;;;;;4993336;28;20671;-74
2024/01/09 13:55:52;;;;;;;23.88;22.38;;;;;;;;;;4992287;28;20234;-74
2024/01/09 13:58:19;;;;;;;24.42;22.83;;;;;;;;;;4992539;28;20222;-74
2024/01/09 14:00:47;;;;;;;23.77;22.08;;;;;;;;;;4992933;28;20217;-74
2024/01/09 14:03:15;;;;;;;24.80;23.23;;;;;;;;;;4993070;28;20241;-74
2024/01/09 14:05:42;;;;;;;24.70;23.05;;;;;;;;;;4993116;28;20213;-74
2024/01/09 14:08:09;;;;;;;25.30;23.42;;;;;;;;;;4992933;28;21068;-75
2024/01/09 14:10:36;;;;;;;23.60;21.90;;;;;;;;;;4992280;28;20612;-75
2024/01/09 14:13:03;;;;;;;24.48;22.98;;;;;;;;;;4993160;28;20214;-74
2024/01/09 14:15:29;;;;;;;26.13;24.13;;;;;;;;;;5001329;28;20229;-74
2024/01/09 14:17:56;;;;;;;25.33;23.38;;;;;;;;;;5021822;28;20227;-75